sensor_id;sensor_type;location;lat;lon;timestamp;P1;durP1;ratioP1;P2;durP2;ratioP2
27213;SDS011;14723;55.814;37.460;2023-03-12T00:01:15;6.72;;;3.85;;
27213;SDS011;14723;55.814;37.460;2023-03-12T00:04:20;6.80;;;4.07;;
27213;SDS011;14723;55.814;37.460;2023-03-12T00:07:26;5.25;;;3.67;;
27213;SDS011;14723;55.814;37.460;2023-03-12T00:10:33;5.38;;;3.88;;
27213;SDS011;14723;55.814;37.460;2023-03-12T00:13:39;5.97;;;4.10;;
27213;SDS011;14723;55.814;37.460;2023-03-12T00:16:44;5.47;;;4.03;;
27213;SDS011;14723;55.814;37.460;2023-03-12T00:19:50;6.72;;;4.35;;
27213;SDS011;14723;55.814;37.460;2023-03-12T00:22:55;4.97;;;4.07;;
27213;SDS011;14723;55.814;37.460;2023-03-12T00:26:04;6.15;;;4.28;;
27213;SDS011;14723;55.814;37.460;2023-03-12T00:29:09;5.60;;;4.13;;
27213;SDS011;14723;55.814;37.460;2023-03-12T00:32:14;6.68;;;4.45;;
27213;SDS011;14723;55.814;37.460;2023-03-12T00:35:20;9.73;;;5.13;;
27213;SDS011;14723;55.814;37.460;2023-03-12T00:38:27;7.25;;;4.75;;
27213;SDS011;14723;55.814;37.460;2023-03-12T00:41:35;8.23;;;4.80;;
27213;SDS011;14723;55.814;37.460;2023-03-12T00:47:45;6.60;;;4.55;;
27213;SDS011;14723;55.814;37.460;2023-03-12T00:50:51;7.15;;;4.30;;
27213;SDS011;14723;55.814;37.460;2023-03-12T00:53:56;5.93;;;4.30;;
27213;SDS011;14723;55.814;37.460;2023-03-12T00:57:04;7.20;;;4.57;;
27213;SDS011;14723;55.814;37.460;2023-03-12T01:00:10;7.05;;;4.53;;
27213;SDS011;14723;55.814;37.460;2023-03-12T01:03:16;7.38;;;4.15;;
27213;SDS011;14723;55.814;37.460;2023-03-12T01:06:21;7.47;;;4.90;;
27213;SDS011;14723;55.814;37.460;2023-03-12T01:09:26;8.50;;;4.40;;
27213;SDS011;14723;55.814;37.460;2023-03-12T01:12:34;5.45;;;4.00;;
27213;SDS011;14723;55.814;37.460;2023-03-12T01:15:39;6.85;;;4.47;;
27213;SDS011;14723;55.814;37.460;2023-03-12T01:18:45;6.93;;;4.32;;
27213;SDS011;14723;55.814;37.460;2023-03-12T01:21:50;7.00;;;4.57;;
27213;SDS011;14723;55.814;37.460;2023-03-12T01:24:55;7.93;;;4.75;;
27213;SDS011;14723;55.814;37.460;2023-03-12T01:28:04;6.93;;;5.22;;
27213;SDS011;14723;55.814;37.460;2023-03-12T01:31:10;9.73;;;5.63;;
27213;SDS011;14723;55.814;37.460;2023-03-12T01:34:16;6.63;;;4.80;;
27213;SDS011;14723;55.814;37.460;2023-03-12T01:37:21;7.63;;;5.03;;
27213;SDS011;14723;55.814;37.460;2023-03-12T01:40:27;11.20;;;6.25;;
27213;SDS011;14723;55.814;37.460;2023-03-12T01:43:36;12.32;;;6.40;;
27213;SDS011;14723;55.814;37.460;2023-03-12T01:49:51;12.65;;;7.63;;
27213;SDS011;14723;55.814;37.460;2023-03-12T01:52:57;14.43;;;7.80;;
27213;SDS011;14723;55.814;37.460;2023-03-12T01:56:03;18.27;;;9.48;;
27213;SDS011;14723;55.814;37.460;2023-03-12T01:59:13;21.70;;;9.85;;
27213;SDS011;14723;55.814;37.460;2023-03-12T02:02:19;19.15;;;9.75;;
27213;SDS011;14723;55.814;37.460;2023-03-12T02:05:29;22.90;;;11.52;;
27213;SDS011;14723;55.814;37.460;2023-03-12T02:08:40;24.90;;;11.68;;
27213;SDS011;14723;55.814;37.460;2023-03-12T02:11:46;23.52;;;11.55;;
27213;SDS011;14723;55.814;37.460;2023-03-12T02:14:56;22.50;;;11.30;;
27213;SDS011;14723;55.814;37.460;2023-03-12T02:18:03;25.15;;;12.85;;
27213;SDS011;14723;55.814;37.460;2023-03-12T02:21:11;26.35;;;12.20;;
27213;SDS011;14723;55.814;37.460;2023-03-12T02:24:20;24.00;;;11.68;;
27213;SDS011;14723;55.814;37.460;2023-03-12T02:27:32;26.50;;;13.07;;
27213;SDS011;14723;55.814;37.460;2023-03-12T02:30:38;26.20;;;12.30;;
27213;SDS011;14723;55.814;37.460;2023-03-12T02:33:44;24.45;;;12.63;;
27213;SDS011;14723;55.814;37.460;2023-03-12T02:36:49;29.60;;;13.40;;
27213;SDS011;14723;55.814;37.460;2023-03-12T02:39:56;27.83;;;13.98;;
27213;SDS011;14723;55.814;37.460;2023-03-12T02:43:10;25.30;;;13.68;;
27213;SDS011;14723;55.814;37.460;2023-03-12T02:46:15;26.58;;;13.23;;
27213;SDS011;14723;55.814;37.460;2023-03-12T02:49:22;26.52;;;12.57;;
27213;SDS011;14723;55.814;37.460;2023-03-12T02:52:27;23.65;;;12.00;;
27213;SDS011;14723;55.814;37.460;2023-03-12T02:55:36;21.05;;;11.70;;
27213;SDS011;14723;55.814;37.460;2023-03-12T02:58:44;22.58;;;11.40;;
27213;SDS011;14723;55.814;37.460;2023-03-12T03:01:50;27.70;;;12.67;;
27213;SDS011;14723;55.814;37.460;2023-03-12T03:04:56;22.45;;;11.32;;
27213;SDS011;14723;55.814;37.460;2023-03-12T03:08:01;22.65;;;11.50;;
27213;SDS011;14723;55.814;37.460;2023-03-12T03:11:07;24.30;;;12.90;;
27213;SDS011;14723;55.814;37.460;2023-03-12T03:14:15;22.15;;;12.18;;
27213;SDS011;14723;55.814;37.460;2023-03-12T03:17:24;17.88;;;10.80;;
27213;SDS011;14723;55.814;37.460;2023-03-12T03:20:29;25.88;;;11.88;;
27213;SDS011;14723;55.814;37.460;2023-03-12T03:23:35;21.00;;;10.23;;
27213;SDS011;14723;55.814;37.460;2023-03-12T03:26:40;19.08;;;9.82;;
27213;SDS011;14723;55.814;37.460;2023-03-12T03:29:49;16.50;;;8.75;;
27213;SDS011;14723;55.814;37.460;2023-03-12T03:32:55;17.92;;;9.43;;
27213;SDS011;14723;55.814;37.460;2023-03-12T03:36:01;16.20;;;8.73;;
27213;SDS011;14723;55.814;37.460;2023-03-12T03:39:09;14.98;;;8.38;;
27213;SDS011;14723;55.814;37.460;2023-03-12T03:42:15;18.33;;;9.80;;
27213;SDS011;14723;55.814;37.460;2023-03-12T03:45:22;16.83;;;8.50;;
27213;SDS011;14723;55.814;37.460;2023-03-12T03:51:33;16.52;;;9.63;;
27213;SDS011;14723;55.814;37.460;2023-03-12T03:54:42;15.57;;;9.20;;
27213;SDS011;14723;55.814;37.460;2023-03-12T03:57:47;16.67;;;9.55;;
27213;SDS011;14723;55.814;37.460;2023-03-12T04:00:56;21.33;;;9.88;;
27213;SDS011;14723;55.814;37.460;2023-03-12T04:04:01;21.15;;;9.85;;
27213;SDS011;14723;55.814;37.460;2023-03-12T04:07:08;19.10;;;9.80;;
27213;SDS011;14723;55.814;37.460;2023-03-12T04:10:14;19.73;;;10.95;;
27213;SDS011;14723;55.814;37.460;2023-03-12T04:13:19;18.80;;;10.75;;
27213;SDS011;14723;55.814;37.460;2023-03-12T04:16:28;19.42;;;10.73;;
27213;SDS011;14723;55.814;37.460;2023-03-12T04:19:33;17.35;;;10.13;;
27213;SDS011;14723;55.814;37.460;2023-03-12T04:22:40;17.67;;;10.50;;
27213;SDS011;14723;55.814;37.460;2023-03-12T04:25:45;17.77;;;10.68;;
27213;SDS011;14723;55.814;37.460;2023-03-12T04:28:51;16.52;;;9.25;;
27213;SDS011;14723;55.814;37.460;2023-03-12T04:31:59;19.27;;;11.05;;
27213;SDS011;14723;55.814;37.460;2023-03-12T04:35:04;19.65;;;10.80;;
27213;SDS011;14723;55.814;37.460;2023-03-12T04:38:10;25.60;;;11.90;;
27213;SDS011;14723;55.814;37.460;2023-03-12T04:41:16;15.25;;;9.57;;
27213;SDS011;14723;55.814;37.460;2023-03-12T04:44:29;17.42;;;9.98;;
27213;SDS011;14723;55.814;37.460;2023-03-12T04:47:37;19.10;;;10.10;;
27213;SDS011;14723;55.814;37.460;2023-03-12T04:50:44;15.07;;;8.40;;
27213;SDS011;14723;55.814;37.460;2023-03-12T04:53:49;19.15;;;9.25;;
27213;SDS011;14723;55.814;37.460;2023-03-12T04:56:55;15.32;;;9.18;;
27213;SDS011;14723;55.814;37.460;2023-03-12T05:00:02;14.25;;;8.75;;
27213;SDS011;14723;55.814;37.460;2023-03-12T05:03:14;12.98;;;8.68;;
27213;SDS011;14723;55.814;37.460;2023-03-12T05:06:20;14.80;;;8.70;;
27213;SDS011;14723;55.814;37.460;2023-03-12T05:09:27;16.65;;;9.20;;
27213;SDS011;14723;55.814;37.460;2023-03-12T05:12:32;19.90;;;10.30;;
27213;SDS011;14723;55.814;37.460;2023-03-12T05:15:38;17.52;;;10.25;;
27213;SDS011;14723;55.814;37.460;2023-03-12T05:18:46;16.30;;;9.35;;
27213;SDS011;14723;55.814;37.460;2023-03-12T05:24:57;15.10;;;9.23;;
27213;SDS011;14723;55.814;37.460;2023-03-12T05:28:03;19.30;;;10.05;;
27213;SDS011;14723;55.814;37.460;2023-03-12T05:31:11;18.13;;;9.35;;
27213;SDS011;14723;55.814;37.460;2023-03-12T05:34:19;15.88;;;9.27;;
27213;SDS011;14723;55.814;37.460;2023-03-12T05:37:26;13.75;;;8.23;;
27213;SDS011;14723;55.814;37.460;2023-03-12T05:40:33;13.68;;;7.75;;
27213;SDS011;14723;55.814;37.460;2023-03-12T05:43:38;11.80;;;7.45;;
27213;SDS011;14723;55.814;37.460;2023-03-12T05:46:44;13.00;;;8.18;;
27213;SDS011;14723;55.814;37.460;2023-03-12T05:49:52;12.40;;;7.30;;
27213;SDS011;14723;55.814;37.460;2023-03-12T05:52:57;14.32;;;8.00;;
27213;SDS011;14723;55.814;37.460;2023-03-12T05:56:03;13.88;;;7.93;;
27213;SDS011;14723;55.814;37.460;2023-03-12T05:59:09;16.77;;;8.85;;
27213;SDS011;14723;55.814;37.460;2023-03-12T06:02:15;18.05;;;8.55;;
27213;SDS011;14723;55.814;37.460;2023-03-12T06:05:23;14.60;;;8.07;;
27213;SDS011;14723;55.814;37.460;2023-03-12T06:11:34;13.38;;;8.18;;
27213;SDS011;14723;55.814;37.460;2023-03-12T06:14:40;15.20;;;8.07;;
27213;SDS011;14723;55.814;37.460;2023-03-12T06:17:45;15.52;;;7.88;;
27213;SDS011;14723;55.814;37.460;2023-03-12T06:20:54;15.05;;;9.00;;
27213;SDS011;14723;55.814;37.460;2023-03-12T06:23:59;18.92;;;9.45;;
27213;SDS011;14723;55.814;37.460;2023-03-12T06:27:15;16.52;;;8.98;;
27213;SDS011;14723;55.814;37.460;2023-03-12T06:30:21;15.05;;;9.32;;
27213;SDS011;14723;55.814;37.460;2023-03-12T06:33:26;16.35;;;8.55;;
27213;SDS011;14723;55.814;37.460;2023-03-12T06:36:34;15.70;;;8.85;;
27213;SDS011;14723;55.814;37.460;2023-03-12T06:39:39;18.23;;;9.48;;
27213;SDS011;14723;55.814;37.460;2023-03-12T06:42:45;15.82;;;8.98;;
27213;SDS011;14723;55.814;37.460;2023-03-12T06:45:50;16.77;;;10.13;;
27213;SDS011;14723;55.814;37.460;2023-03-12T06:48:55;16.77;;;9.23;;
27213;SDS011;14723;55.814;37.460;2023-03-12T06:52:03;14.55;;;8.65;;
27213;SDS011;14723;55.814;37.460;2023-03-12T06:55:09;15.98;;;9.35;;
27213;SDS011;14723;55.814;37.460;2023-03-12T06:58:14;16.38;;;9.50;;
27213;SDS011;14723;55.814;37.460;2023-03-12T07:01:19;15.93;;;9.95;;
27213;SDS011;14723;55.814;37.460;2023-03-12T07:04:24;19.38;;;9.80;;
27213;SDS011;14723;55.814;37.460;2023-03-12T07:07:32;19.85;;;10.63;;
27213;SDS011;14723;55.814;37.460;2023-03-12T07:10:38;22.38;;;11.52;;
27213;SDS011;14723;55.814;37.460;2023-03-12T07:13:43;21.92;;;11.85;;
27213;SDS011;14723;55.814;37.460;2023-03-12T07:16:48;19.73;;;11.30;;
27213;SDS011;14723;55.814;37.460;2023-03-12T07:19:53;22.02;;;11.95;;
27213;SDS011;14723;55.814;37.460;2023-03-12T07:23:02;22.60;;;12.00;;
27213;SDS011;14723;55.814;37.460;2023-03-12T07:26:07;21.25;;;12.38;;
27213;SDS011;14723;55.814;37.460;2023-03-12T07:29:12;21.60;;;11.35;;
27213;SDS011;14723;55.814;37.460;2023-03-12T07:32:17;22.80;;;12.05;;
27213;SDS011;14723;55.814;37.460;2023-03-12T07:35:23;22.05;;;11.63;;
27213;SDS011;14723;55.814;37.460;2023-03-12T07:38:31;21.55;;;12.35;;
27213;SDS011;14723;55.814;37.460;2023-03-12T07:41:36;19.90;;;11.30;;
27213;SDS011;14723;55.814;37.460;2023-03-12T07:44:44;21.52;;;11.15;;
27213;SDS011;14723;55.814;37.460;2023-03-12T07:47:49;18.70;;;10.55;;
27213;SDS011;14723;55.814;37.460;2023-03-12T07:50:54;20.38;;;10.93;;
27213;SDS011;14723;55.814;37.460;2023-03-12T07:54:02;23.33;;;11.30;;
27213;SDS011;14723;55.814;37.460;2023-03-12T07:57:08;19.15;;;11.07;;
27213;SDS011;14723;55.814;37.460;2023-03-12T08:00:13;17.45;;;10.60;;
27213;SDS011;14723;55.814;37.460;2023-03-12T08:03:19;16.90;;;10.85;;
27213;SDS011;14723;55.814;37.460;2023-03-12T08:06:25;15.93;;;10.60;;
27213;SDS011;14723;55.814;37.460;2023-03-12T08:09:32;18.15;;;10.63;;
27213;SDS011;14723;55.814;37.460;2023-03-12T08:12:39;15.98;;;9.63;;
27213;SDS011;14723;55.814;37.460;2023-03-12T08:15:45;15.18;;;9.45;;
27213;SDS011;14723;55.814;37.460;2023-03-12T08:18:50;15.35;;;9.88;;
27213;SDS011;14723;55.814;37.460;2023-03-12T08:21:56;14.35;;;8.55;;
27213;SDS011;14723;55.814;37.460;2023-03-12T08:25:04;18.63;;;9.38;;
27213;SDS011;14723;55.814;37.460;2023-03-12T08:28:10;13.85;;;8.98;;
27213;SDS011;14723;55.814;37.460;2023-03-12T08:31:15;16.00;;;8.27;;
27213;SDS011;14723;55.814;37.460;2023-03-12T08:34:20;14.63;;;8.50;;
27213;SDS011;14723;55.814;37.460;2023-03-12T08:37:26;11.48;;;7.50;;
27213;SDS011;14723;55.814;37.460;2023-03-12T08:40:34;11.90;;;7.18;;
27213;SDS011;14723;55.814;37.460;2023-03-12T08:43:39;11.20;;;7.00;;
27213;SDS011;14723;55.814;37.460;2023-03-12T08:46:45;14.90;;;7.35;;
27213;SDS011;14723;55.814;37.460;2023-03-12T08:49:50;11.32;;;6.55;;
27213;SDS011;14723;55.814;37.460;2023-03-12T08:52:55;13.32;;;7.82;;
27213;SDS011;14723;55.814;37.460;2023-03-12T08:56:03;10.65;;;6.53;;
27213;SDS011;14723;55.814;37.460;2023-03-12T08:59:09;8.27;;;6.15;;
27213;SDS011;14723;55.814;37.460;2023-03-12T09:02:14;9.85;;;5.93;;
27213;SDS011;14723;55.814;37.460;2023-03-12T09:05:20;9.00;;;5.97;;
27213;SDS011;14723;55.814;37.460;2023-03-12T09:08:25;8.60;;;5.40;;
27213;SDS011;14723;55.814;37.460;2023-03-12T09:11:34;10.93;;;6.05;;
27213;SDS011;14723;55.814;37.460;2023-03-12T09:14:40;8.77;;;5.18;;
27213;SDS011;14723;55.814;37.460;2023-03-12T09:18:05;8.88;;;5.25;;
27213;SDS011;14723;55.814;37.460;2023-03-12T09:21:11;7.80;;;5.28;;
27213;SDS011;14723;55.814;37.460;2023-03-12T09:24:16;8.60;;;5.30;;
27213;SDS011;14723;55.814;37.460;2023-03-12T09:27:24;8.38;;;5.32;;
27213;SDS011;14723;55.814;37.460;2023-03-12T09:30:29;7.70;;;5.10;;
27213;SDS011;14723;55.814;37.460;2023-03-12T09:33:35;9.32;;;5.40;;
27213;SDS011;14723;55.814;37.460;2023-03-12T09:36:40;10.82;;;5.50;;
27213;SDS011;14723;55.814;37.460;2023-03-12T09:39:47;10.27;;;5.32;;
27213;SDS011;14723;55.814;37.460;2023-03-12T09:42:56;10.98;;;4.97;;
27213;SDS011;14723;55.814;37.460;2023-03-12T09:46:02;6.95;;;4.85;;
27213;SDS011;14723;55.814;37.460;2023-03-12T09:49:10;10.30;;;5.28;;
27213;SDS011;14723;55.814;37.460;2023-03-12T09:52:17;9.35;;;5.55;;
27213;SDS011;14723;55.814;37.460;2023-03-12T09:55:26;9.20;;;5.20;;
27213;SDS011;14723;55.814;37.460;2023-03-12T09:58:35;8.32;;;4.78;;
27213;SDS011;14723;55.814;37.460;2023-03-12T10:01:43;6.22;;;4.50;;
27213;SDS011;14723;55.814;37.460;2023-03-12T10:04:52;9.10;;;4.90;;
27213;SDS011;14723;55.814;37.460;2023-03-12T10:08:02;7.70;;;4.22;;
27213;SDS011;14723;55.814;37.460;2023-03-12T10:11:28;8.55;;;5.55;;
27213;SDS011;14723;55.814;37.460;2023-03-12T10:14:41;7.38;;;4.70;;
27213;SDS011;14723;55.814;37.460;2023-03-12T10:17:50;9.27;;;5.55;;
27213;SDS011;14723;55.814;37.460;2023-03-12T10:21:05;9.77;;;6.40;;
27213;SDS011;14723;55.814;37.460;2023-03-12T10:24:19;7.63;;;4.70;;
27213;SDS011;14723;55.814;37.460;2023-03-12T10:27:31;6.45;;;5.45;;
27213;SDS011;14723;55.814;37.460;2023-03-12T10:30:44;6.63;;;4.20;;
27213;SDS011;14723;55.814;37.460;2023-03-12T10:33:51;5.45;;;3.88;;
27213;SDS011;14723;55.814;37.460;2023-03-12T10:37:02;7.72;;;4.03;;
27213;SDS011;14723;55.814;37.460;2023-03-12T10:40:10;5.68;;;3.78;;
27213;SDS011;14723;55.814;37.460;2023-03-12T10:43:16;8.73;;;4.05;;
27213;SDS011;14723;55.814;37.460;2023-03-12T10:46:33;4.95;;;3.67;;
27213;SDS011;14723;55.814;37.460;2023-03-12T10:49:42;3.92;;;3.40;;
27213;SDS011;14723;55.814;37.460;2023-03-12T10:52:51;5.30;;;3.58;;
27213;SDS011;14723;55.814;37.460;2023-03-12T10:55:58;3.90;;;2.83;;
27213;SDS011;14723;55.814;37.460;2023-03-12T10:59:04;6.68;;;3.33;;
27213;SDS011;14723;55.814;37.460;2023-03-12T11:02:34;5.47;;;3.17;;
27213;SDS011;14723;55.814;37.460;2023-03-12T11:05:45;9.80;;;3.70;;
27213;SDS011;14723;55.814;37.460;2023-03-12T11:09:03;5.55;;;3.50;;
27213;SDS011;14723;55.814;37.460;2023-03-12T11:12:25;5.63;;;3.50;;
27213;SDS011;14723;55.814;37.460;2023-03-12T11:15:38;7.97;;;3.90;;
27213;SDS011;14723;55.814;37.460;2023-03-12T11:18:55;6.43;;;3.33;;
27213;SDS011;14723;55.814;37.460;2023-03-12T11:22:02;6.10;;;3.75;;
27213;SDS011;14723;55.814;37.460;2023-03-12T11:25:14;8.13;;;3.85;;
27213;SDS011;14723;55.814;37.460;2023-03-12T11:28:24;2.25;;;1.70;;
27213;SDS011;14723;55.814;37.460;2023-03-12T11:31:32;1.70;;;1.20;;
27213;SDS011;14723;55.814;37.460;2023-03-12T11:34:41;2.67;;;0.88;;
27213;SDS011;14723;55.814;37.460;2023-03-12T11:37:51;0.88;;;0.85;;
27213;SDS011;14723;55.814;37.460;2023-03-12T11:41:03;1.10;;;0.80;;
27213;SDS011;14723;55.814;37.460;2023-03-12T11:44:22;0.93;;;0.60;;
27213;SDS011;14723;55.814;37.460;2023-03-12T11:47:33;2.85;;;0.85;;
27213;SDS011;14723;55.814;37.460;2023-03-12T11:50:46;2.65;;;0.93;;
27213;SDS011;14723;55.814;37.460;2023-03-12T11:54:05;1.38;;;0.60;;
27213;SDS011;14723;55.814;37.460;2023-03-12T11:57:18;1.08;;;0.50;;
27213;SDS011;14723;55.814;37.460;2023-03-12T12:00:27;2.70;;;0.70;;
27213;SDS011;14723;55.814;37.460;2023-03-12T12:07:02;0.80;;;0.70;;
27213;SDS011;14723;55.814;37.460;2023-03-12T12:10:12;1.70;;;0.82;;
27213;SDS011;14723;55.814;37.460;2023-03-12T12:13:22;1.80;;;0.73;;
27213;SDS011;14723;55.814;37.460;2023-03-12T12:16:32;1.10;;;0.52;;
27213;SDS011;14723;55.814;37.460;2023-03-12T12:19:45;0.88;;;0.50;;
27213;SDS011;14723;55.814;37.460;2023-03-12T12:23:00;1.45;;;0.80;;
27213;SDS011;14723;55.814;37.460;2023-03-12T12:26:07;1.10;;;0.60;;
27213;SDS011;14723;55.814;37.460;2023-03-12T12:29:16;0.98;;;0.70;;
27213;SDS011;14723;55.814;37.460;2023-03-12T12:32:26;1.65;;;0.70;;
27213;SDS011;14723;55.814;37.460;2023-03-12T12:35:37;1.40;;;0.85;;
27213;SDS011;14723;55.814;37.460;2023-03-12T12:38:48;2.35;;;0.80;;
27213;SDS011;14723;55.814;37.460;2023-03-12T12:41:56;2.53;;;0.80;;
27213;SDS011;14723;55.814;37.460;2023-03-12T12:45:03;0.95;;;0.50;;
27213;SDS011;14723;55.814;37.460;2023-03-12T12:48:11;0.85;;;0.30;;
27213;SDS011;14723;55.814;37.460;2023-03-12T12:51:19;0.30;;;0.30;;
27213;SDS011;14723;55.814;37.460;2023-03-12T12:54:29;0.65;;;0.40;;
27213;SDS011;14723;55.814;37.460;2023-03-12T12:57:36;1.30;;;0.70;;
27213;SDS011;14723;55.814;37.460;2023-03-12T13:00:44;0.80;;;0.63;;
27213;SDS011;14723;55.814;37.460;2023-03-12T13:03:51;4.65;;;0.90;;
27213;SDS011;14723;55.814;37.460;2023-03-12T13:07:02;1.65;;;0.80;;
27213;SDS011;14723;55.814;37.460;2023-03-12T13:10:41;2.05;;;0.70;;
27213;SDS011;14723;55.814;37.460;2023-03-12T13:14:20;1.17;;;0.82;;
27213;SDS011;14723;55.814;37.460;2023-03-12T13:17:27;1.90;;;1.00;;
27213;SDS011;14723;55.814;37.460;2023-03-12T13:20:34;1.08;;;0.70;;
27213;SDS011;14723;55.814;37.460;2023-03-12T13:23:42;1.48;;;0.95;;
27213;SDS011;14723;55.814;37.460;2023-03-12T13:26:57;2.78;;;0.90;;
27213;SDS011;14723;55.814;37.460;2023-03-12T13:33:35;12.80;;;1.85;;
27213;SDS011;14723;55.814;37.460;2023-03-12T13:36:44;1.98;;;1.00;;
27213;SDS011;14723;55.814;37.460;2023-03-12T13:39:49;2.50;;;1.08;;
27213;SDS011;14723;55.814;37.460;2023-03-12T13:43:04;3.20;;;1.55;;
27213;SDS011;14723;55.814;37.460;2023-03-12T13:46:20;4.63;;;1.17;;
27213;SDS011;14723;55.814;37.460;2023-03-12T13:49:26;1.65;;;1.10;;
27213;SDS011;14723;55.814;37.460;2023-03-12T13:52:36;2.72;;;1.17;;
27213;SDS011;14723;55.814;37.460;2023-03-12T13:55:44;6.60;;;1.20;;
27213;SDS011;14723;55.814;37.460;2023-03-12T13:58:56;1.27;;;0.90;;
27213;SDS011;14723;55.814;37.460;2023-03-12T14:02:04;4.60;;;1.23;;
27213;SDS011;14723;55.814;37.460;2023-03-12T14:05:16;2.28;;;0.85;;
27213;SDS011;14723;55.814;37.460;2023-03-12T14:08:32;3.60;;;2.15;;
27213;SDS011;14723;55.814;37.460;2023-03-12T14:11:46;1.83;;;0.65;;
27213;SDS011;14723;55.814;37.460;2023-03-12T14:15:09;1.55;;;0.73;;
27213;SDS011;14723;55.814;37.460;2023-03-12T14:18:19;2.42;;;0.95;;
27213;SDS011;14723;55.814;37.460;2023-03-12T14:21:26;2.20;;;0.85;;
27213;SDS011;14723;55.814;37.460;2023-03-12T14:27:38;2.97;;;1.15;;
27213;SDS011;14723;55.814;37.460;2023-03-12T14:30:49;3.03;;;0.93;;
27213;SDS011;14723;55.814;37.460;2023-03-12T14:33:57;1.10;;;0.90;;
27213;SDS011;14723;55.814;37.460;2023-03-12T14:37:03;1.10;;;0.82;;
27213;SDS011;14723;55.814;37.460;2023-03-12T14:40:19;2.50;;;1.05;;
27213;SDS011;14723;55.814;37.460;2023-03-12T14:43:25;2.15;;;1.20;;
27213;SDS011;14723;55.814;37.460;2023-03-12T14:46:33;1.50;;;0.90;;
27213;SDS011;14723;55.814;37.460;2023-03-12T14:49:39;1.50;;;1.00;;
27213;SDS011;14723;55.814;37.460;2023-03-12T14:52:45;4.05;;;2.10;;
27213;SDS011;14723;55.814;37.460;2023-03-12T14:56:00;2.97;;;1.83;;
27213;SDS011;14723;55.814;37.460;2023-03-12T14:59:19;15.68;;;2.63;;
27213;SDS011;14723;55.814;37.460;2023-03-12T15:05:32;5.57;;;1.98;;
27213;SDS011;14723;55.814;37.460;2023-03-12T15:08:38;3.92;;;2.13;;
27213;SDS011;14723;55.814;37.460;2023-03-12T15:11:45;3.97;;;2.00;;
27213;SDS011;14723;55.814;37.460;2023-03-12T15:14:55;4.32;;;2.60;;
27213;SDS011;14723;55.814;37.460;2023-03-12T15:18:05;3.58;;;2.28;;
27213;SDS011;14723;55.814;37.460;2023-03-12T15:21:13;4.00;;;2.30;;
27213;SDS011;14723;55.814;37.460;2023-03-12T15:24:19;5.97;;;2.55;;
27213;SDS011;14723;55.814;37.460;2023-03-12T15:27:32;8.77;;;2.42;;
27213;SDS011;14723;55.814;37.460;2023-03-12T15:30:37;4.63;;;2.42;;
27213;SDS011;14723;55.814;37.460;2023-03-12T15:33:43;4.30;;;2.47;;
27213;SDS011;14723;55.814;37.460;2023-03-12T15:36:51;6.22;;;2.78;;
27213;SDS011;14723;55.814;37.460;2023-03-12T15:39:59;5.63;;;3.10;;
27213;SDS011;14723;55.814;37.460;2023-03-12T15:43:13;7.20;;;2.88;;
27213;SDS011;14723;55.814;37.460;2023-03-12T15:46:19;22.90;;;3.50;;
27213;SDS011;14723;55.814;37.460;2023-03-12T15:49:26;16.35;;;3.78;;
27213;SDS011;14723;55.814;37.460;2023-03-12T15:52:36;10.20;;;3.03;;
27213;SDS011;14723;55.814;37.460;2023-03-12T15:55:42;7.47;;;3.80;;
27213;SDS011;14723;55.814;37.460;2023-03-12T15:58:49;7.32;;;3.42;;
27213;SDS011;14723;55.814;37.460;2023-03-12T16:02:02;7.88;;;3.78;;
27213;SDS011;14723;55.814;37.460;2023-03-12T16:05:08;13.25;;;3.55;;
27213;SDS011;14723;55.814;37.460;2023-03-12T16:08:17;6.95;;;2.75;;
27213;SDS011;14723;55.814;37.460;2023-03-12T16:11:23;6.85;;;3.78;;
27213;SDS011;14723;55.814;37.460;2023-03-12T16:14:30;9.27;;;3.83;;
27213;SDS011;14723;55.814;37.460;2023-03-12T16:17:37;8.10;;;4.37;;
27213;SDS011;14723;55.814;37.460;2023-03-12T16:20:43;8.63;;;4.03;;
27213;SDS011;14723;55.814;37.460;2023-03-12T16:23:51;8.68;;;4.43;;
27213;SDS011;14723;55.814;37.460;2023-03-12T16:26:57;25.48;;;4.93;;
27213;SDS011;14723;55.814;37.460;2023-03-12T16:30:03;6.82;;;4.10;;
27213;SDS011;14723;55.814;37.460;2023-03-12T16:33:11;7.25;;;3.95;;
27213;SDS011;14723;55.814;37.460;2023-03-12T16:36:17;7.70;;;3.65;;
27213;SDS011;14723;55.814;37.460;2023-03-12T16:39:25;8.65;;;4.60;;
27213;SDS011;14723;55.814;37.460;2023-03-12T16:42:34;8.18;;;4.70;;
27213;SDS011;14723;55.814;37.460;2023-03-12T16:45:41;18.88;;;4.70;;
27213;SDS011;14723;55.814;37.460;2023-03-12T16:48:47;9.95;;;4.60;;
27213;SDS011;14723;55.814;37.460;2023-03-12T16:51:54;11.75;;;4.85;;
27213;SDS011;14723;55.814;37.460;2023-03-12T16:55:02;9.88;;;5.25;;
27213;SDS011;14723;55.814;37.460;2023-03-12T16:58:09;11.57;;;5.57;;
27213;SDS011;14723;55.814;37.460;2023-03-12T17:01:15;12.87;;;5.50;;
27213;SDS011;14723;55.814;37.460;2023-03-12T17:04:21;14.60;;;5.75;;
27213;SDS011;14723;55.814;37.460;2023-03-12T17:07:27;11.13;;;5.75;;
27213;SDS011;14723;55.814;37.460;2023-03-12T17:10:34;9.82;;;5.68;;
27213;SDS011;14723;55.814;37.460;2023-03-12T17:13:40;10.30;;;5.45;;
27213;SDS011;14723;55.814;37.460;2023-03-12T17:16:47;9.25;;;5.22;;
27213;SDS011;14723;55.814;37.460;2023-03-12T17:19:52;9.63;;;4.90;;
27213;SDS011;14723;55.814;37.460;2023-03-12T17:22:57;8.48;;;4.90;;
27213;SDS011;14723;55.814;37.460;2023-03-12T17:26:05;8.13;;;4.35;;
27213;SDS011;14723;55.814;37.460;2023-03-12T17:29:11;6.85;;;3.90;;
27213;SDS011;14723;55.814;37.460;2023-03-12T17:32:16;7.93;;;4.30;;
27213;SDS011;14723;55.814;37.460;2023-03-12T17:35:22;7.35;;;4.30;;
27213;SDS011;14723;55.814;37.460;2023-03-12T17:38:28;8.55;;;4.07;;
27213;SDS011;14723;55.814;37.460;2023-03-12T17:41:36;6.95;;;3.78;;
27213;SDS011;14723;55.814;37.460;2023-03-12T17:44:41;7.50;;;4.03;;
27213;SDS011;14723;55.814;37.460;2023-03-12T17:47:46;13.15;;;4.00;;
27213;SDS011;14723;55.814;37.460;2023-03-12T17:50:52;8.60;;;4.28;;
27213;SDS011;14723;55.814;37.460;2023-03-12T17:53:59;7.75;;;4.13;;
27213;SDS011;14723;55.814;37.460;2023-03-12T17:57:07;9.27;;;3.95;;
27213;SDS011;14723;55.814;37.460;2023-03-12T18:00:12;8.20;;;4.43;;
27213;SDS011;14723;55.814;37.460;2023-03-12T18:03:18;6.68;;;3.70;;
27213;SDS011;14723;55.814;37.460;2023-03-12T18:06:24;7.57;;;4.20;;
27213;SDS011;14723;55.814;37.460;2023-03-12T18:09:29;7.15;;;4.07;;
27213;SDS011;14723;55.814;37.460;2023-03-12T18:12:37;9.27;;;3.90;;
27213;SDS011;14723;55.814;37.460;2023-03-12T18:15:47;5.53;;;3.30;;
27213;SDS011;14723;55.814;37.460;2023-03-12T18:18:53;7.63;;;3.22;;
27213;SDS011;14723;55.814;37.460;2023-03-12T18:21:59;7.40;;;3.38;;
27213;SDS011;14723;55.814;37.460;2023-03-12T18:25:04;8.77;;;3.45;;
27213;SDS011;14723;55.814;37.460;2023-03-12T18:28:13;8.23;;;3.60;;
27213;SDS011;14723;55.814;37.460;2023-03-12T18:31:18;6.90;;;3.13;;
27213;SDS011;14723;55.814;37.460;2023-03-12T18:34:24;5.30;;;3.03;;
27213;SDS011;14723;55.814;37.460;2023-03-12T18:37:29;4.45;;;2.88;;
27213;SDS011;14723;55.814;37.460;2023-03-12T18:40:34;4.97;;;2.38;;
27213;SDS011;14723;55.814;37.460;2023-03-12T18:43:42;5.15;;;2.13;;
27213;SDS011;14723;55.814;37.460;2023-03-12T18:46:47;3.60;;;2.25;;
27213;SDS011;14723;55.814;37.460;2023-03-12T18:49:55;2.97;;;2.03;;
27213;SDS011;14723;55.814;37.460;2023-03-12T18:53:01;3.97;;;2.17;;